Terminal Aerodrome Forecast
Issued by NWS

Home | Current Version | Previous Version | Text Only | Print | Product List | Glossary Off
Versions: 1 2 3 4 5 6 7 8 9 10 11 12 13 14 15

000
FTUS45 KGGW 231100 RRA
TAFSDY
TAF
KSDY 231141Z 2312/2412 29012KT P6SM VCSH OVC025
     FM231700 31009KT P6SM OVC060
     FM232300 VRB05KT P6SM SCT100
      AMD LTD TO CLD VIS AND WIND=

USA.gov is the U.S. government's official web portal to all federal, state and local government web resources and services.